sensor_id;sensor_type;location;lat;lon;timestamp;P1;durP1;ratioP1;P2;durP2;ratioP2
47960;SDS011;33721;48.852;9.936;2023-04-29T00:00:30;11.55;;;6.50;;
47960;SDS011;33721;48.852;9.936;2023-04-29T00:02:56;12.80;;;7.43;;
47960;SDS011;33721;48.852;9.936;2023-04-29T00:05:21;12.00;;;7.15;;
47960;SDS011;33721;48.852;9.936;2023-04-29T00:07:47;13.57;;;6.47;;
47960;SDS011;33721;48.852;9.936;2023-04-29T00:10:13;10.52;;;6.22;;
47960;SDS011;33721;48.852;9.936;2023-04-29T00:12:39;13.65;;;6.35;;
47960;SDS011;33721;48.852;9.936;2023-04-29T00:15:06;12.45;;;6.60;;
47960;SDS011;33721;48.852;9.936;2023-04-29T00:17:32;12.57;;;6.78;;
47960;SDS011;33721;48.852;9.936;2023-04-29T00:19:58;11.75;;;6.78;;
47960;SDS011;33721;48.852;9.936;2023-04-29T00:22:24;15.07;;;7.35;;
47960;SDS011;33721;48.852;9.936;2023-04-29T00:24:50;11.15;;;6.32;;
47960;SDS011;33721;48.852;9.936;2023-04-29T00:27:17;16.70;;;7.50;;
47960;SDS011;33721;48.852;9.936;2023-04-29T00:29:42;13.77;;;6.93;;
47960;SDS011;33721;48.852;9.936;2023-04-29T00:32:08;12.90;;;7.10;;
47960;SDS011;33721;48.852;9.936;2023-04-29T00:34:34;13.73;;;6.85;;
47960;SDS011;33721;48.852;9.936;2023-04-29T00:37:00;15.60;;;7.22;;
47960;SDS011;33721;48.852;9.936;2023-04-29T00:39:25;13.20;;;6.85;;
47960;SDS011;33721;48.852;9.936;2023-04-29T00:41:51;12.23;;;7.05;;
47960;SDS011;33721;48.852;9.936;2023-04-29T00:44:17;15.57;;;6.57;;
47960;SDS011;33721;48.852;9.936;2023-04-29T00:46:43;9.77;;;6.60;;
47960;SDS011;33721;48.852;9.936;2023-04-29T00:49:09;12.32;;;6.30;;
47960;SDS011;33721;48.852;9.936;2023-04-29T00:51:36;11.50;;;6.70;;
47960;SDS011;33721;48.852;9.936;2023-04-29T00:54:04;10.80;;;6.97;;
47960;SDS011;33721;48.852;9.936;2023-04-29T00:56:31;12.40;;;7.30;;
47960;SDS011;33721;48.852;9.936;2023-04-29T00:58:59;12.27;;;7.57;;
47960;SDS011;33721;48.852;9.936;2023-04-29T01:01:26;17.35;;;7.20;;
47960;SDS011;33721;48.852;9.936;2023-04-29T01:03:53;13.98;;;7.50;;
47960;SDS011;33721;48.852;9.936;2023-04-29T01:11:37;10.73;;;6.82;;
47960;SDS011;33721;48.852;9.936;2023-04-29T01:14:10;15.40;;;7.43;;
47960;SDS011;33721;48.852;9.936;2023-04-29T01:16:37;12.15;;;7.35;;
47960;SDS011;33721;48.852;9.936;2023-04-29T01:19:28;12.02;;;7.22;;
47960;SDS011;33721;48.852;9.936;2023-04-29T01:21:56;11.82;;;7.60;;
47960;SDS011;33721;48.852;9.936;2023-04-29T01:24:22;13.68;;;7.80;;
47960;SDS011;33721;48.852;9.936;2023-04-29T01:26:50;14.40;;;8.50;;
47960;SDS011;33721;48.852;9.936;2023-04-29T01:29:28;14.85;;;8.52;;
47960;SDS011;33721;48.852;9.936;2023-04-29T01:32:05;14.15;;;8.70;;
47960;SDS011;33721;48.852;9.936;2023-04-29T01:40:21;15.10;;;8.77;;
47960;SDS011;33721;48.852;9.936;2023-04-29T01:43:03;17.15;;;8.32;;
47960;SDS011;33721;48.852;9.936;2023-04-29T01:45:35;15.32;;;8.43;;
47960;SDS011;33721;48.852;9.936;2023-04-29T01:48:05;15.75;;;8.60;;
47960;SDS011;33721;48.852;9.936;2023-04-29T01:50:31;15.10;;;8.68;;
47960;SDS011;33721;48.852;9.936;2023-04-29T01:52:57;14.90;;;9.38;;
47960;SDS011;33721;48.852;9.936;2023-04-29T01:55:23;16.25;;;9.05;;
47960;SDS011;33721;48.852;9.936;2023-04-29T01:57:48;15.93;;;9.77;;
47960;SDS011;33721;48.852;9.936;2023-04-29T02:00:14;21.20;;;10.57;;
47960;SDS011;33721;48.852;9.936;2023-04-29T02:02:40;21.40;;;9.63;;
47960;SDS011;33721;48.852;9.936;2023-04-29T02:05:05;16.25;;;9.63;;
47960;SDS011;33721;48.852;9.936;2023-04-29T02:07:31;22.85;;;10.35;;
47960;SDS011;33721;48.852;9.936;2023-04-29T02:09:57;22.30;;;10.32;;
47960;SDS011;33721;48.852;9.936;2023-04-29T02:12:22;17.02;;;10.77;;
47960;SDS011;33721;48.852;9.936;2023-04-29T02:14:50;21.95;;;11.05;;
47960;SDS011;33721;48.852;9.936;2023-04-29T02:17:17;17.80;;;11.05;;
47960;SDS011;33721;48.852;9.936;2023-04-29T02:19:42;30.38;;;11.35;;
47960;SDS011;33721;48.852;9.936;2023-04-29T02:22:08;28.55;;;11.23;;
47960;SDS011;33721;48.852;9.936;2023-04-29T02:24:36;16.60;;;10.50;;
47960;SDS011;33721;48.852;9.936;2023-04-29T02:27:02;19.73;;;10.73;;
47960;SDS011;33721;48.852;9.936;2023-04-29T02:29:29;17.63;;;10.45;;
47960;SDS011;33721;48.852;9.936;2023-04-29T02:31:55;21.05;;;10.23;;
47960;SDS011;33721;48.852;9.936;2023-04-29T02:34:21;17.45;;;10.30;;
47960;SDS011;33721;48.852;9.936;2023-04-29T02:36:48;30.23;;;10.05;;
47960;SDS011;33721;48.852;9.936;2023-04-29T02:39:14;39.35;;;9.93;;
47960;SDS011;33721;48.852;9.936;2023-04-29T02:41:39;15.98;;;9.68;;
47960;SDS011;33721;48.852;9.936;2023-04-29T02:44:06;22.98;;;9.95;;
47960;SDS011;33721;48.852;9.936;2023-04-29T02:46:32;13.43;;;8.43;;
47960;SDS011;33721;48.852;9.936;2023-04-29T02:48:59;27.98;;;9.23;;
47960;SDS011;33721;48.852;9.936;2023-04-29T02:51:26;56.28;;;10.35;;
47960;SDS011;33721;48.852;9.936;2023-04-29T02:53:52;62.28;;;10.23;;
47960;SDS011;33721;48.852;9.936;2023-04-29T02:56:17;219.20;;;12.38;;
47960;SDS011;33721;48.852;9.936;2023-04-29T02:58:43;382.20;;;13.80;;
47960;SDS011;33721;48.852;9.936;2023-04-29T03:01:09;372.15;;;12.70;;
47960;SDS011;33721;48.852;9.936;2023-04-29T03:03:35;320.15;;;12.10;;
47960;SDS011;33721;48.852;9.936;2023-04-29T03:06:01;168.35;;;8.93;;
47960;SDS011;33721;48.852;9.936;2023-04-29T03:08:27;172.70;;;9.10;;
47960;SDS011;33721;48.852;9.936;2023-04-29T03:10:53;80.15;;;8.75;;
47960;SDS011;33721;48.852;9.936;2023-04-29T03:13:18;50.28;;;7.82;;
47960;SDS011;33721;48.852;9.936;2023-04-29T03:15:44;64.68;;;8.23;;
47960;SDS011;33721;48.852;9.936;2023-04-29T03:18:10;21.90;;;7.95;;
47960;SDS011;33721;48.852;9.936;2023-04-29T03:20:36;54.45;;;8.32;;
47960;SDS011;33721;48.852;9.936;2023-04-29T03:23:02;29.92;;;8.35;;
47960;SDS011;33721;48.852;9.936;2023-04-29T03:25:27;24.30;;;8.18;;
47960;SDS011;33721;48.852;9.936;2023-04-29T03:27:54;52.72;;;7.45;;
47960;SDS011;33721;48.852;9.936;2023-04-29T03:30:19;99.95;;;9.68;;
47960;SDS011;33721;48.852;9.936;2023-04-29T03:32:45;57.58;;;7.47;;
47960;SDS011;33721;48.852;9.936;2023-04-29T03:35:11;35.40;;;7.20;;
47960;SDS011;33721;48.852;9.936;2023-04-29T03:37:37;96.30;;;6.93;;
47960;SDS011;33721;48.852;9.936;2023-04-29T03:40:03;52.50;;;6.38;;
47960;SDS011;33721;48.852;9.936;2023-04-29T03:42:30;38.85;;;6.75;;
47960;SDS011;33721;48.852;9.936;2023-04-29T03:44:55;31.55;;;8.10;;
47960;SDS011;33721;48.852;9.936;2023-04-29T03:47:21;58.42;;;7.30;;
47960;SDS011;33721;48.852;9.936;2023-04-29T03:49:47;44.72;;;6.72;;
47960;SDS011;33721;48.852;9.936;2023-04-29T03:52:13;25.85;;;6.15;;
47960;SDS011;33721;48.852;9.936;2023-04-29T03:54:40;17.40;;;6.18;;
47960;SDS011;33721;48.852;9.936;2023-04-29T03:57:05;10.15;;;6.25;;
47960;SDS011;33721;48.852;9.936;2023-04-29T03:59:31;12.02;;;5.72;;
47960;SDS011;33721;48.852;9.936;2023-04-29T04:01:57;33.90;;;5.95;;
47960;SDS011;33721;48.852;9.936;2023-04-29T04:04:22;114.35;;;6.53;;
47960;SDS011;33721;48.852;9.936;2023-04-29T04:06:48;57.95;;;6.57;;
47960;SDS011;33721;48.852;9.936;2023-04-29T04:09:16;101.38;;;7.38;;
47960;SDS011;33721;48.852;9.936;2023-04-29T04:11:44;45.75;;;6.35;;
47960;SDS011;33721;48.852;9.936;2023-04-29T04:14:10;162.57;;;9.02;;
47960;SDS011;33721;48.852;9.936;2023-04-29T04:16:36;169.68;;;8.18;;
47960;SDS011;33721;48.852;9.936;2023-04-29T04:19:02;153.95;;;8.60;;
47960;SDS011;33721;48.852;9.936;2023-04-29T04:21:28;251.57;;;9.77;;
47960;SDS011;33721;48.852;9.936;2023-04-29T04:23:54;79.57;;;6.45;;
47960;SDS011;33721;48.852;9.936;2023-04-29T04:26:20;198.60;;;7.80;;
47960;SDS011;33721;48.852;9.936;2023-04-29T04:28:47;114.28;;;7.85;;
47960;SDS011;33721;48.852;9.936;2023-04-29T04:31:12;64.13;;;6.18;;
47960;SDS011;33721;48.852;9.936;2023-04-29T04:33:41;71.10;;;6.78;;
47960;SDS011;33721;48.852;9.936;2023-04-29T04:36:07;120.38;;;6.88;;
47960;SDS011;33721;48.852;9.936;2023-04-29T04:38:32;115.50;;;6.93;;
47960;SDS011;33721;48.852;9.936;2023-04-29T04:40:58;246.18;;;9.65;;
47960;SDS011;33721;48.852;9.936;2023-04-29T04:43:24;67.50;;;6.95;;
47960;SDS011;33721;48.852;9.936;2023-04-29T04:45:49;166.73;;;8.43;;
47960;SDS011;33721;48.852;9.936;2023-04-29T04:48:15;228.90;;;8.88;;
47960;SDS011;33721;48.852;9.936;2023-04-29T04:50:41;366.63;;;11.75;;
47960;SDS011;33721;48.852;9.936;2023-04-29T04:53:07;260.48;;;10.10;;
47960;SDS011;33721;48.852;9.936;2023-04-29T04:55:36;145.18;;;7.95;;
47960;SDS011;33721;48.852;9.936;2023-04-29T04:58:01;240.55;;;8.90;;
47960;SDS011;33721;48.852;9.936;2023-04-29T05:00:27;594.35;;;15.68;;
47960;SDS011;33721;48.852;9.936;2023-04-29T05:02:52;67.43;;;6.18;;
47960;SDS011;33721;48.852;9.936;2023-04-29T05:05:18;17.60;;;5.80;;
47960;SDS011;33721;48.852;9.936;2023-04-29T05:07:44;33.65;;;6.28;;
47960;SDS011;33721;48.852;9.936;2023-04-29T05:10:10;9.77;;;5.85;;
47960;SDS011;33721;48.852;9.936;2023-04-29T05:12:35;21.40;;;6.60;;
47960;SDS011;33721;48.852;9.936;2023-04-29T05:15:01;18.20;;;6.38;;
47960;SDS011;33721;48.852;9.936;2023-04-29T05:17:28;10.75;;;6.07;;
47960;SDS011;33721;48.852;9.936;2023-04-29T05:19:54;49.40;;;6.90;;
47960;SDS011;33721;48.852;9.936;2023-04-29T05:22:20;12.60;;;6.50;;
47960;SDS011;33721;48.852;9.936;2023-04-29T05:24:45;32.15;;;6.68;;
47960;SDS011;33721;48.852;9.936;2023-04-29T05:27:12;8.82;;;5.72;;
47960;SDS011;33721;48.852;9.936;2023-04-29T05:29:38;9.85;;;6.30;;
47960;SDS011;33721;48.852;9.936;2023-04-29T05:32:04;10.52;;;6.57;;
47960;SDS011;33721;48.852;9.936;2023-04-29T05:34:30;14.73;;;6.10;;
47960;SDS011;33721;48.852;9.936;2023-04-29T05:36:55;41.80;;;5.78;;
47960;SDS011;33721;48.852;9.936;2023-04-29T05:39:21;7.85;;;5.50;;
47960;SDS011;33721;48.852;9.936;2023-04-29T05:41:47;11.52;;;6.75;;
47960;SDS011;33721;48.852;9.936;2023-04-29T05:44:12;22.40;;;6.65;;
47960;SDS011;33721;48.852;9.936;2023-04-29T05:46:38;268.15;;;10.93;;
47960;SDS011;33721;48.852;9.936;2023-04-29T05:49:04;12.57;;;7.50;;
47960;SDS011;33721;48.852;9.936;2023-04-29T05:51:29;14.93;;;7.07;;
47960;SDS011;33721;48.852;9.936;2023-04-29T05:53:56;12.35;;;7.55;;
47960;SDS011;33721;48.852;9.936;2023-04-29T05:56:23;13.15;;;7.53;;
47960;SDS011;33721;48.852;9.936;2023-04-29T05:58:49;14.10;;;8.10;;
47960;SDS011;33721;48.852;9.936;2023-04-29T06:01:15;13.85;;;8.05;;
47960;SDS011;33721;48.852;9.936;2023-04-29T06:03:41;16.83;;;9.13;;
47960;SDS011;33721;48.852;9.936;2023-04-29T06:06:07;16.13;;;8.80;;
47960;SDS011;33721;48.852;9.936;2023-04-29T06:08:33;15.52;;;8.35;;
47960;SDS011;33721;48.852;9.936;2023-04-29T06:10:59;15.38;;;8.75;;
47960;SDS011;33721;48.852;9.936;2023-04-29T06:13:26;15.18;;;9.15;;
47960;SDS011;33721;48.852;9.936;2023-04-29T06:15:54;19.27;;;11.05;;
47960;SDS011;33721;48.852;9.936;2023-04-29T06:18:19;18.60;;;10.30;;
47960;SDS011;33721;48.852;9.936;2023-04-29T06:20:45;18.20;;;10.80;;
47960;SDS011;33721;48.852;9.936;2023-04-29T06:23:11;20.23;;;10.60;;
47960;SDS011;33721;48.852;9.936;2023-04-29T06:25:36;19.02;;;11.25;;
47960;SDS011;33721;48.852;9.936;2023-04-29T06:28:02;20.60;;;12.15;;
47960;SDS011;33721;48.852;9.936;2023-04-29T06:30:28;19.95;;;12.02;;
47960;SDS011;33721;48.852;9.936;2023-04-29T06:32:53;19.38;;;11.32;;
47960;SDS011;33721;48.852;9.936;2023-04-29T06:35:19;19.50;;;12.00;;
47960;SDS011;33721;48.852;9.936;2023-04-29T06:37:45;19.85;;;11.93;;
47960;SDS011;33721;48.852;9.936;2023-04-29T06:40:11;22.00;;;11.63;;
47960;SDS011;33721;48.852;9.936;2023-04-29T06:42:37;20.50;;;11.32;;
47960;SDS011;33721;48.852;9.936;2023-04-29T06:45:03;21.60;;;12.40;;
47960;SDS011;33721;48.852;9.936;2023-04-29T06:47:29;18.38;;;11.27;;
47960;SDS011;33721;48.852;9.936;2023-04-29T06:49:55;14.73;;;9.25;;
47960;SDS011;33721;48.852;9.936;2023-04-29T06:52:20;15.73;;;8.85;;
47960;SDS011;33721;48.852;9.936;2023-04-29T06:54:46;13.43;;;8.13;;
47960;SDS011;33721;48.852;9.936;2023-04-29T06:57:11;13.43;;;8.82;;
47960;SDS011;33721;48.852;9.936;2023-04-29T06:59:37;13.32;;;7.82;;
47960;SDS011;33721;48.852;9.936;2023-04-29T07:02:03;13.95;;;8.07;;
47960;SDS011;33721;48.852;9.936;2023-04-29T07:04:28;12.25;;;6.57;;
47960;SDS011;33721;48.852;9.936;2023-04-29T07:06:54;10.32;;;6.28;;
47960;SDS011;33721;48.852;9.936;2023-04-29T07:09:20;9.38;;;6.13;;
47960;SDS011;33721;48.852;9.936;2023-04-29T07:11:47;8.82;;;6.10;;
47960;SDS011;33721;48.852;9.936;2023-04-29T07:14:13;10.93;;;6.50;;
47960;SDS011;33721;48.852;9.936;2023-04-29T07:16:39;11.75;;;7.25;;
47960;SDS011;33721;48.852;9.936;2023-04-29T07:19:05;15.10;;;6.95;;
47960;SDS011;33721;48.852;9.936;2023-04-29T07:21:30;15.15;;;7.38;;
47960;SDS011;33721;48.852;9.936;2023-04-29T07:23:56;10.13;;;7.10;;
47960;SDS011;33721;48.852;9.936;2023-04-29T07:26:25;10.30;;;5.97;;
47960;SDS011;33721;48.852;9.936;2023-04-29T07:28:50;9.93;;;5.95;;
47960;SDS011;33721;48.852;9.936;2023-04-29T07:31:16;8.77;;;6.10;;
47960;SDS011;33721;48.852;9.936;2023-04-29T07:33:42;7.80;;;5.65;;
47960;SDS011;33721;48.852;9.936;2023-04-29T07:36:09;9.20;;;6.63;;
47960;SDS011;33721;48.852;9.936;2023-04-29T07:38:35;12.75;;;6.80;;
47960;SDS011;33721;48.852;9.936;2023-04-29T07:41:01;9.13;;;6.13;;
47960;SDS011;33721;48.852;9.936;2023-04-29T07:43:28;10.68;;;5.68;;
47960;SDS011;33721;48.852;9.936;2023-04-29T07:45:54;10.77;;;6.47;;
47960;SDS011;33721;48.852;9.936;2023-04-29T07:48:20;11.90;;;7.05;;
47960;SDS011;33721;48.852;9.936;2023-04-29T07:50:45;10.65;;;6.68;;
47960;SDS011;33721;48.852;9.936;2023-04-29T07:53:11;11.43;;;7.22;;
47960;SDS011;33721;48.852;9.936;2023-04-29T07:55:37;13.85;;;7.38;;
47960;SDS011;33721;48.852;9.936;2023-04-29T07:58:03;15.90;;;7.93;;
47960;SDS011;33721;48.852;9.936;2023-04-29T08:00:28;13.30;;;7.72;;
47960;SDS011;33721;48.852;9.936;2023-04-29T08:02:54;13.93;;;8.25;;
47960;SDS011;33721;48.852;9.936;2023-04-29T08:05:21;17.10;;;7.47;;
47960;SDS011;33721;48.852;9.936;2023-04-29T08:07:48;12.50;;;7.90;;
47960;SDS011;33721;48.852;9.936;2023-04-29T08:10:14;12.10;;;7.28;;
47960;SDS011;33721;48.852;9.936;2023-04-29T08:12:40;8.98;;;6.35;;
47960;SDS011;33721;48.852;9.936;2023-04-29T08:15:06;9.38;;;6.03;;
47960;SDS011;33721;48.852;9.936;2023-04-29T08:17:32;15.23;;;7.28;;
47960;SDS011;33721;48.852;9.936;2023-04-29T08:19:58;10.70;;;6.38;;
47960;SDS011;33721;48.852;9.936;2023-04-29T08:22:23;10.30;;;6.10;;
47960;SDS011;33721;48.852;9.936;2023-04-29T08:24:49;12.35;;;6.60;;
47960;SDS011;33721;48.852;9.936;2023-04-29T08:27:14;8.57;;;5.70;;
47960;SDS011;33721;48.852;9.936;2023-04-29T08:29:40;9.90;;;6.13;;
47960;SDS011;33721;48.852;9.936;2023-04-29T08:32:07;9.80;;;6.68;;
47960;SDS011;33721;48.852;9.936;2023-04-29T08:34:32;10.20;;;5.53;;
47960;SDS011;33721;48.852;9.936;2023-04-29T08:37:00;9.50;;;6.07;;
47960;SDS011;33721;48.852;9.936;2023-04-29T08:39:29;11.90;;;6.57;;
47960;SDS011;33721;48.852;9.936;2023-04-29T08:41:58;10.30;;;6.15;;
47960;SDS011;33721;48.852;9.936;2023-04-29T08:44:27;10.43;;;5.53;;
47960;SDS011;33721;48.852;9.936;2023-04-29T08:46:54;16.55;;;6.10;;
47960;SDS011;33721;48.852;9.936;2023-04-29T08:49:21;9.55;;;5.32;;
47960;SDS011;33721;48.852;9.936;2023-04-29T08:51:49;9.07;;;6.13;;
47960;SDS011;33721;48.852;9.936;2023-04-29T08:54:18;7.93;;;5.18;;
47960;SDS011;33721;48.852;9.936;2023-04-29T08:56:44;6.10;;;4.47;;
47960;SDS011;33721;48.852;9.936;2023-04-29T08:59:11;13.10;;;4.95;;
47960;SDS011;33721;48.852;9.936;2023-04-29T09:01:39;8.05;;;5.38;;
47960;SDS011;33721;48.852;9.936;2023-04-29T09:04:08;7.28;;;4.97;;
47960;SDS011;33721;48.852;9.936;2023-04-29T09:06:39;8.02;;;5.35;;
47960;SDS011;33721;48.852;9.936;2023-04-29T09:09:05;8.13;;;4.88;;
47960;SDS011;33721;48.852;9.936;2023-04-29T09:11:31;7.20;;;4.63;;
47960;SDS011;33721;48.852;9.936;2023-04-29T09:14:01;8.45;;;4.97;;
47960;SDS011;33721;48.852;9.936;2023-04-29T09:16:28;9.43;;;5.45;;
47960;SDS011;33721;48.852;9.936;2023-04-29T09:18:55;7.53;;;5.38;;
47960;SDS011;33721;48.852;9.936;2023-04-29T09:21:22;11.18;;;5.15;;
47960;SDS011;33721;48.852;9.936;2023-04-29T09:23:58;7.27;;;4.43;;
47960;SDS011;33721;48.852;9.936;2023-04-29T09:26:25;7.65;;;4.55;;
47960;SDS011;33721;48.852;9.936;2023-04-29T09:29:12;8.20;;;4.70;;
47960;SDS011;33721;48.852;9.936;2023-04-29T09:31:40;5.40;;;4.00;;
47960;SDS011;33721;48.852;9.936;2023-04-29T09:34:06;8.25;;;4.15;;
47960;SDS011;33721;48.852;9.936;2023-04-29T09:39:10;7.85;;;4.07;;
47960;SDS011;33721;48.852;9.936;2023-04-29T09:44:19;7.00;;;3.70;;
47960;SDS011;33721;48.852;9.936;2023-04-29T09:49:23;7.22;;;4.20;;
47960;SDS011;33721;48.852;9.936;2023-04-29T09:51:53;4.70;;;3.53;;
47960;SDS011;33721;48.852;9.936;2023-04-29T09:54:21;7.28;;;3.22;;
47960;SDS011;33721;48.852;9.936;2023-04-29T09:56:52;5.50;;;3.72;;
47960;SDS011;33721;48.852;9.936;2023-04-29T09:59:19;7.68;;;4.13;;
47960;SDS011;33721;48.852;9.936;2023-04-29T10:01:55;7.38;;;4.65;;
47960;SDS011;33721;48.852;9.936;2023-04-29T10:04:23;6.25;;;4.07;;
47960;SDS011;33721;48.852;9.936;2023-04-29T10:06:51;5.55;;;3.55;;
47960;SDS011;33721;48.852;9.936;2023-04-29T10:09:18;6.07;;;3.78;;
47960;SDS011;33721;48.852;9.936;2023-04-29T10:11:46;9.40;;;4.18;;
47960;SDS011;33721;48.852;9.936;2023-04-29T10:14:23;5.80;;;3.45;;
47960;SDS011;33721;48.852;9.936;2023-04-29T10:19:37;4.28;;;3.08;;
47960;SDS011;33721;48.852;9.936;2023-04-29T10:22:11;5.40;;;3.40;;
47960;SDS011;33721;48.852;9.936;2023-04-29T10:24:46;5.38;;;3.70;;
47960;SDS011;33721;48.852;9.936;2023-04-29T10:27:13;5.50;;;3.90;;
47960;SDS011;33721;48.852;9.936;2023-04-29T10:29:39;7.70;;;4.15;;
47960;SDS011;33721;48.852;9.936;2023-04-29T10:32:08;7.22;;;4.00;;
47960;SDS011;33721;48.852;9.936;2023-04-29T10:34:36;5.82;;;3.47;;
47960;SDS011;33721;48.852;9.936;2023-04-29T10:37:05;6.40;;;3.25;;
47960;SDS011;33721;48.852;9.936;2023-04-29T10:39:38;4.75;;;3.25;;
47960;SDS011;33721;48.852;9.936;2023-04-29T10:45:18;5.85;;;3.28;;
47960;SDS011;33721;48.852;9.936;2023-04-29T10:53:01;7.03;;;3.45;;
47960;SDS011;33721;48.852;9.936;2023-04-29T10:55:28;7.78;;;3.15;;
47960;SDS011;33721;48.852;9.936;2023-04-29T10:57:55;7.30;;;3.15;;
47960;SDS011;33721;48.852;9.936;2023-04-29T11:00:28;4.95;;;3.60;;
47960;SDS011;33721;48.852;9.936;2023-04-29T11:02:56;5.97;;;3.40;;
47960;SDS011;33721;48.852;9.936;2023-04-29T11:10:43;5.60;;;3.92;;
47960;SDS011;33721;48.852;9.936;2023-04-29T11:13:28;7.18;;;4.00;;
47960;SDS011;33721;48.852;9.936;2023-04-29T11:16:04;8.25;;;3.72;;
47960;SDS011;33721;48.852;9.936;2023-04-29T11:18:31;7.10;;;4.20;;
47960;SDS011;33721;48.852;9.936;2023-04-29T11:23:36;6.25;;;3.90;;
47960;SDS011;33721;48.852;9.936;2023-04-29T11:26:02;6.28;;;3.60;;
47960;SDS011;33721;48.852;9.936;2023-04-29T11:28:29;6.45;;;3.88;;
47960;SDS011;33721;48.852;9.936;2023-04-29T11:30:56;6.72;;;3.85;;
47960;SDS011;33721;48.852;9.936;2023-04-29T11:33:23;8.32;;;3.97;;
47960;SDS011;33721;48.852;9.936;2023-04-29T11:35:51;6.32;;;3.28;;
47960;SDS011;33721;48.852;9.936;2023-04-29T11:38:16;5.40;;;3.17;;
47960;SDS011;33721;48.852;9.936;2023-04-29T11:40:48;4.53;;;3.17;;
47960;SDS011;33721;48.852;9.936;2023-04-29T11:43:17;4.72;;;3.50;;
47960;SDS011;33721;48.852;9.936;2023-04-29T11:45:44;5.00;;;3.35;;
47960;SDS011;33721;48.852;9.936;2023-04-29T11:48:17;6.05;;;4.10;;
47960;SDS011;33721;48.852;9.936;2023-04-29T11:50:44;6.35;;;3.65;;
47960;SDS011;33721;48.852;9.936;2023-04-29T11:53:14;7.65;;;3.55;;
47960;SDS011;33721;48.852;9.936;2023-04-29T11:55:41;8.88;;;4.68;;
47960;SDS011;33721;48.852;9.936;2023-04-29T11:58:10;9.50;;;4.38;;
47960;SDS011;33721;48.852;9.936;2023-04-29T12:00:36;5.20;;;3.72;;
47960;SDS011;33721;48.852;9.936;2023-04-29T12:03:14;5.53;;;3.50;;
47960;SDS011;33721;48.852;9.936;2023-04-29T12:05:49;5.07;;;3.58;;
47960;SDS011;33721;48.852;9.936;2023-04-29T12:08:22;4.72;;;3.47;;
47960;SDS011;33721;48.852;9.936;2023-04-29T12:10:56;3.70;;;2.47;;
47960;SDS011;33721;48.852;9.936;2023-04-29T12:13:23;5.22;;;2.10;;
47960;SDS011;33721;48.852;9.936;2023-04-29T12:15:51;4.30;;;2.92;;
47960;SDS011;33721;48.852;9.936;2023-04-29T12:18:18;5.18;;;3.22;;
47960;SDS011;33721;48.852;9.936;2023-04-29T12:20:46;4.75;;;3.00;;
47960;SDS011;33721;48.852;9.936;2023-04-29T12:23:13;5.05;;;2.80;;
47960;SDS011;33721;48.852;9.936;2023-04-29T12:25:50;3.65;;;2.60;;
47960;SDS011;33721;48.852;9.936;2023-04-29T12:30:44;3.72;;;2.65;;
47960;SDS011;33721;48.852;9.936;2023-04-29T12:33:15;3.45;;;2.72;;
47960;SDS011;33721;48.852;9.936;2023-04-29T12:35:51;7.03;;;2.97;;
47960;SDS011;33721;48.852;9.936;2023-04-29T12:40:54;5.97;;;3.00;;
47960;SDS011;33721;48.852;9.936;2023-04-29T12:45:51;4.55;;;3.00;;
47960;SDS011;33721;48.852;9.936;2023-04-29T12:48:28;5.03;;;2.97;;
47960;SDS011;33721;48.852;9.936;2023-04-29T12:50:58;5.00;;;3.15;;
47960;SDS011;33721;48.852;9.936;2023-04-29T12:53:25;4.45;;;3.20;;
47960;SDS011;33721;48.852;9.936;2023-04-29T12:55:53;4.18;;;3.05;;
47960;SDS011;33721;48.852;9.936;2023-04-29T12:58:18;4.93;;;3.30;;
47960;SDS011;33721;48.852;9.936;2023-04-29T13:00:44;7.43;;;3.30;;
47960;SDS011;33721;48.852;9.936;2023-04-29T13:03:10;4.25;;;2.90;;
47960;SDS011;33721;48.852;9.936;2023-04-29T13:05:35;9.45;;;3.97;;
47960;SDS011;33721;48.852;9.936;2023-04-29T13:08:01;7.18;;;3.47;;
47960;SDS011;33721;48.852;9.936;2023-04-29T13:10:30;6.20;;;2.95;;
47960;SDS011;33721;48.852;9.936;2023-04-29T13:12:55;3.15;;;2.70;;
47960;SDS011;33721;48.852;9.936;2023-04-29T13:15:21;4.20;;;2.58;;
47960;SDS011;33721;48.852;9.936;2023-04-29T13:17:47;4.45;;;2.92;;
47960;SDS011;33721;48.852;9.936;2023-04-29T13:20:12;4.43;;;2.70;;
47960;SDS011;33721;48.852;9.936;2023-04-29T13:22:39;3.33;;;2.63;;
47960;SDS011;33721;48.852;9.936;2023-04-29T13:25:05;7.78;;;2.92;;
47960;SDS011;33721;48.852;9.936;2023-04-29T13:27:32;7.75;;;2.95;;
47960;SDS011;33721;48.852;9.936;2023-04-29T13:29:58;4.78;;;3.00;;
47960;SDS011;33721;48.852;9.936;2023-04-29T13:32:23;4.95;;;3.20;;
47960;SDS011;33721;48.852;9.936;2023-04-29T13:34:49;8.48;;;3.50;;
47960;SDS011;33721;48.852;9.936;2023-04-29T13:37:15;5.72;;;4.00;;
47960;SDS011;33721;48.852;9.936;2023-04-29T13:39:41;7.82;;;4.10;;
47960;SDS011;33721;48.852;9.936;2023-04-29T13:42:07;8.02;;;4.68;;
47960;SDS011;33721;48.852;9.936;2023-04-29T13:44:32;8.38;;;5.22;;
47960;SDS011;33721;48.852;9.936;2023-04-29T13:46:59;10.55;;;4.80;;
47960;SDS011;33721;48.852;9.936;2023-04-29T13:49:25;6.30;;;4.40;;
47960;SDS011;33721;48.852;9.936;2023-04-29T13:51:51;6.75;;;4.45;;
47960;SDS011;33721;48.852;9.936;2023-04-29T13:54:17;13.80;;;5.28;;
47960;SDS011;33721;48.852;9.936;2023-04-29T13:56:45;7.10;;;5.03;;
47960;SDS011;33721;48.852;9.936;2023-04-29T13:59:13;9.75;;;5.10;;
47960;SDS011;33721;48.852;9.936;2023-04-29T14:01:39;11.02;;;5.50;;
47960;SDS011;33721;48.852;9.936;2023-04-29T14:04:05;8.63;;;5.60;;
47960;SDS011;33721;48.852;9.936;2023-04-29T14:06:32;9.52;;;5.15;;
47960;SDS011;33721;48.852;9.936;2023-04-29T14:08:58;7.65;;;4.95;;
47960;SDS011;33721;48.852;9.936;2023-04-29T14:11:24;10.82;;;5.93;;
47960;SDS011;33721;48.852;9.936;2023-04-29T14:13:50;12.82;;;5.90;;
47960;SDS011;33721;48.852;9.936;2023-04-29T14:16:16;8.50;;;5.47;;
47960;SDS011;33721;48.852;9.936;2023-04-29T14:18:41;8.75;;;5.93;;
47960;SDS011;33721;48.852;9.936;2023-04-29T14:21:07;12.13;;;6.07;;
47960;SDS011;33721;48.852;9.936;2023-04-29T14:23:33;10.05;;;6.32;;
47960;SDS011;33721;48.852;9.936;2023-04-29T14:25:58;8.55;;;5.72;;
47960;SDS011;33721;48.852;9.936;2023-04-29T14:28:24;11.18;;;5.88;;
47960;SDS011;33721;48.852;9.936;2023-04-29T14:30:50;11.05;;;6.13;;
47960;SDS011;33721;48.852;9.936;2023-04-29T14:33:16;9.38;;;6.18;;
47960;SDS011;33721;48.852;9.936;2023-04-29T14:35:41;9.40;;;6.05;;
47960;SDS011;33721;48.852;9.936;2023-04-29T14:38:07;11.00;;;6.55;;
47960;SDS011;33721;48.852;9.936;2023-04-29T14:40:32;9.25;;;6.13;;
47960;SDS011;33721;48.852;9.936;2023-04-29T14:42:58;8.23;;;5.75;;
47960;SDS011;33721;48.852;9.936;2023-04-29T14:45:25;8.73;;;5.90;;
47960;SDS011;33721;48.852;9.936;2023-04-29T14:47:52;9.15;;;5.70;;
47960;SDS011;33721;48.852;9.936;2023-04-29T14:50:17;8.70;;;5.53;;
47960;SDS011;33721;48.852;9.936;2023-04-29T14:52:43;9.32;;;5.25;;
47960;SDS011;33721;48.852;9.936;2023-04-29T14:55:09;8.43;;;5.53;;
47960;SDS011;33721;48.852;9.936;2023-04-29T14:57:34;8.85;;;5.00;;
47960;SDS011;33721;48.852;9.936;2023-04-29T15:00:00;8.88;;;5.85;;
47960;SDS011;33721;48.852;9.936;2023-04-29T15:02:25;8.55;;;5.60;;
47960;SDS011;33721;48.852;9.936;2023-04-29T15:04:51;10.38;;;5.30;;
47960;SDS011;33721;48.852;9.936;2023-04-29T15:07:17;6.57;;;4.80;;
47960;SDS011;33721;48.852;9.936;2023-04-29T15:09:43;9.32;;;4.80;;
47960;SDS011;33721;48.852;9.936;2023-04-29T15:12:09;7.35;;;4.93;;
47960;SDS011;33721;48.852;9.936;2023-04-29T15:14:35;6.03;;;4.50;;
47960;SDS011;33721;48.852;9.936;2023-04-29T15:17:01;8.38;;;4.55;;
47960;SDS011;33721;48.852;9.936;2023-04-29T15:19:26;8.32;;;5.18;;
47960;SDS011;33721;48.852;9.936;2023-04-29T15:21:52;8.52;;;5.38;;